Terminal Aerodrome Forecast
Issued by NWS

Home | Current Version | Previous Version | Text Only | Print | Product List | Glossary On
Versions: 1 2 3 4 5 6 7 8 9 10 11 12 13 14 15 16 17
371
FTUS46 KMTR 241720
TAFSNS
TAF
KSNS 241720Z 2418/2518 26004KT P6SM BKN017 OVC030
     FM241830 28006KT P6SM BKN025 BKN040
     FM241900 27012KT P6SM BKN040
     FM242000 27011G16KT P6SM FEW020 SCT060
     FM250200 26007KT P6SM SCT020 BKN050
     FM250500 26005KT P6SM BKN012 OVC020
     FM251000 25004KT P6SM OVC012=

USA.gov is the U.S. government's official web portal to all federal, state and local government web resources and services.